createdAt,value
2022-09-13T00:00:06.565Z,7.68
2022-09-13T00:01:13.699Z,8.07
2022-09-13T00:01:48.310Z,7.64
2022-09-13T00:02:35.556Z,7.70
2022-09-13T00:03:11.176Z,7.45
2022-09-13T00:03:58.583Z,7.24
2022-09-13T00:04:32.248Z,7.68
2022-09-13T00:05:20.548Z,7.75
2022-09-13T00:05:54.389Z,7.43
2022-09-13T00:06:34.586Z,7.26
2022-09-13T00:07:08.694Z,7.03
2022-09-13T00:07:42.253Z,6.99
2022-09-13T00:08:23.570Z,7.26
2022-09-13T00:08:58.138Z,7.14
2022-09-13T00:09:32.271Z,6.93
2022-09-13T00:10:13.559Z,6.88
2022-09-13T00:10:49.674Z,7.15
2022-09-13T00:11:26.364Z,7.06
2022-09-13T00:12:06.581Z,6.85
2022-09-13T00:12:40.609Z,6.75
2022-09-13T00:13:17.149Z,6.94
2022-09-13T00:13:58.576Z,6.70
2022-09-13T00:14:32.902Z,6.71
2022-09-13T00:15:07.148Z,6.68
2022-09-13T00:15:53.559Z,6.71
2022-09-13T00:16:29.712Z,6.71
2022-09-13T00:17:03.359Z,6.59
2022-09-13T00:17:44.566Z,6.49
2022-09-13T00:18:18.640Z,6.75
2022-09-13T00:18:53.771Z,6.82
2022-09-13T00:19:33.565Z,6.89
2022-09-13T00:20:08.533Z,6.69
2022-09-13T00:20:42.387Z,6.36
2022-09-13T00:21:25.562Z,6.16
2022-09-13T00:21:59.642Z,7.01
2022-09-13T00:22:33.481Z,6.95
2022-09-13T00:23:14.604Z,6.47
2022-09-13T00:23:55.637Z,6.46
2022-09-13T00:24:29.242Z,6.64
2022-09-13T00:25:11.535Z,6.61
2022-09-13T00:25:45.602Z,6.50
2022-09-13T00:26:27.185Z,6.50
2022-09-13T00:27:08.575Z,6.25
2022-09-13T00:27:44.645Z,6.22
2022-09-13T00:28:24.576Z,6.22
2022-09-13T00:29:05.671Z,6.72
2022-09-13T00:29:45.549Z,6.76
2022-09-13T00:30:25.614Z,6.44
2022-09-13T00:31:10.536Z,6.38
2022-09-13T00:31:51.719Z,6.61
2022-09-13T00:32:31.529Z,6.54
2022-09-13T00:33:12.626Z,6.64
2022-09-13T00:33:52.586Z,6.13
2022-09-13T00:34:32.604Z,6.04
2022-09-13T00:35:13.524Z,6.15
2022-09-13T00:35:53.650Z,6.30
2022-09-13T00:36:34.576Z,6.30
2022-09-13T00:37:14.642Z,6.18
2022-09-13T00:37:55.536Z,6.28
2022-09-13T00:38:35.911Z,6.20
2022-09-13T00:39:18.589Z,6.11
2022-09-13T00:39:59.652Z,6.15
2022-09-13T00:40:44.534Z,6.30
2022-09-13T00:41:26.603Z,6.28
2022-09-13T00:42:07.539Z,6.28
2022-09-13T00:42:47.599Z,6.25
2022-09-13T00:43:51.546Z,5.85
2022-09-13T00:45:09.550Z,5.97
2022-09-13T00:45:43.313Z,6.20
2022-09-13T00:46:58.538Z,5.85
2022-09-13T00:47:59.312Z,6.04
2022-09-13T00:48:47.542Z,6.09
2022-09-13T00:49:34.121Z,6.10
2022-09-13T00:50:32.555Z,6.40
2022-09-13T00:51:07.327Z,6.39
2022-09-13T00:51:57.516Z,6.32
2022-09-13T00:52:31.826Z,6.21
2022-09-13T00:53:26.549Z,6.25
2022-09-13T00:54:01.235Z,6.32
2022-09-13T00:54:57.517Z,6.18
2022-09-13T00:56:01.604Z,6.20
2022-09-13T00:56:48.621Z,6.30
2022-09-13T00:57:29.517Z,6.19
2022-09-13T00:58:16.561Z,6.14
2022-09-13T00:59:05.504Z,6.20
2022-09-13T01:00:12.297Z,5.96
2022-09-13T01:00:53.516Z,6.01
2022-09-13T01:01:44.594Z,6.03
2022-09-13T01:02:24.603Z,6.11
2022-09-13T01:03:11.494Z,6.26
2022-09-13T01:03:52.550Z,6.26
2022-09-13T01:04:34.485Z,6.07
2022-09-13T01:05:15.653Z,6.20
2022-09-13T01:06:00.492Z,6.19
2022-09-13T01:06:42.813Z,6.41
2022-09-13T01:07:24.549Z,6.56
2022-09-13T01:08:10.237Z,6.25
2022-09-13T01:08:56.517Z,5.99
2022-09-13T01:09:38.033Z,6.25
2022-09-13T01:10:18.480Z,6.15
2022-09-13T01:11:01.280Z,5.81
2022-09-13T01:11:56.521Z,5.72
2022-09-13T01:13:19.537Z,5.94
2022-09-13T01:13:53.374Z,5.90
2022-09-13T01:14:41.488Z,5.95
2022-09-13T01:15:15.540Z,5.81
2022-09-13T01:16:03.578Z,5.84
2022-09-13T01:16:38.394Z,5.94
2022-09-13T01:17:25.512Z,5.91
2022-09-13T01:18:00.372Z,6.10
2022-09-13T01:18:40.537Z,5.95
2022-09-13T01:19:14.613Z,6.10
2022-09-13T01:19:48.272Z,5.71
2022-09-13T01:20:47.495Z,5.82
2022-09-13T01:21:56.620Z,6.05
2022-09-13T01:23:12.426Z,5.65
2022-09-13T01:24:24.513Z,5.10
2022-09-13T01:25:36.580Z,4.95
2022-09-13T01:26:52.781Z,5.07
2022-09-13T01:27:58.480Z,5.51
2022-09-13T01:29:16.618Z,5.68
2022-09-13T01:30:24.514Z,5.57
2022-09-13T01:31:33.703Z,5.51
2022-09-13T01:33:01.484Z,5.74
2022-09-13T01:34:03.524Z,6.46
2022-09-13T01:34:49.474Z,6.75
2022-09-13T01:36:05.489Z,6.76
2022-09-13T01:37:27.909Z,6.30
2022-09-13T01:38:48.490Z,6.38
2022-09-13T01:39:52.692Z,6.47
2022-09-13T01:41:20.581Z,6.86
2022-09-13T01:42:10.949Z,6.57
2022-09-13T01:43:29.468Z,6.14
2022-09-13T01:44:16.811Z,6.13
2022-09-13T01:45:28.508Z,6.34
2022-09-13T01:46:30.506Z,6.44
2022-09-13T01:47:36.576Z,6.24
2022-09-13T01:48:45.521Z,6.24
2022-09-13T01:49:36.804Z,6.29
2022-09-13T01:50:32.447Z,6.20
2022-09-13T01:51:37.509Z,6.10
2022-09-13T01:52:43.046Z,6.44
2022-09-13T01:54:04.455Z,6.35
2022-09-13T01:55:08.689Z,6.28
2022-09-13T01:56:06.465Z,6.07
2022-09-13T01:57:46.593Z,6.34
2022-09-13T01:58:34.545Z,6.15
2022-09-13T01:59:50.505Z,6.05
2022-09-13T02:00:25.528Z,6.47
2022-09-13T02:01:38.443Z,6.43
2022-09-13T02:02:32.982Z,6.16
2022-09-13T02:03:21.467Z,6.51
2022-09-13T02:04:06.535Z,6.79
2022-09-13T02:05:09.448Z,6.55
2022-09-13T02:06:01.570Z,6.60
2022-09-13T02:06:57.459Z,6.46
2022-09-13T02:07:49.647Z,6.31
2022-09-13T02:08:56.489Z,6.29
2022-09-13T02:09:41.563Z,6.57
2022-09-13T02:10:36.490Z,6.53
2022-09-13T02:11:22.600Z,6.40
2022-09-13T02:12:15.445Z,6.25
2022-09-13T02:12:56.580Z,6.45
2022-09-13T02:13:43.442Z,6.28
2022-09-13T02:14:31.472Z,6.10
2022-09-13T02:15:24.564Z,6.40
2022-09-13T02:16:22.447Z,6.19
2022-09-13T02:17:19.563Z,6.03
2022-09-13T02:18:19.461Z,6.21
2022-09-13T02:18:57.720Z,5.78
2022-09-13T02:19:50.501Z,5.84
2022-09-13T02:20:40.493Z,6.07
2022-09-13T02:21:34.417Z,6.20
2022-09-13T02:22:09.548Z,6.16
2022-09-13T02:23:02.457Z,5.75
2022-09-13T02:23:58.545Z,5.88
2022-09-13T02:24:52.476Z,6.16
2022-09-13T02:25:28.500Z,5.90
2022-09-13T02:26:16.433Z,5.71
2022-09-13T02:26:52.815Z,5.84
2022-09-13T02:27:41.468Z,5.81
2022-09-13T02:28:19.513Z,5.81
2022-09-13T02:29:10.414Z,5.79
2022-09-13T02:29:47.488Z,5.76
2022-09-13T02:30:28.474Z,6.15
2022-09-13T02:31:09.503Z,6.14
2022-09-13T02:32:02.480Z,5.94
2022-09-13T02:33:32.581Z,5.97
2022-09-13T02:34:24.442Z,5.99
2022-09-13T02:35:20.610Z,6.07
2022-09-13T02:36:14.449Z,5.69
2022-09-13T02:36:55.505Z,6.10
2022-09-13T02:37:39.437Z,6.31
2022-09-13T02:38:32.517Z,6.26
2022-09-13T02:39:21.618Z,6.38
2022-09-13T02:40:08.645Z,6.57
2022-09-13T02:41:00.618Z,6.71
2022-09-13T02:41:48.469Z,6.68
2022-09-13T02:42:47.862Z,6.47
2022-09-13T02:43:51.617Z,6.40
2022-09-13T02:44:54.579Z,6.56
2022-09-13T02:45:53.477Z,6.64
2022-09-13T02:47:07.487Z,6.40
2022-09-13T02:48:18.439Z,6.54
2022-09-13T02:49:35.439Z,6.91
2022-09-13T02:50:51.436Z,6.85
2022-09-13T02:52:03.433Z,6.28
2022-09-13T02:52:59.457Z,6.25
2022-09-13T02:54:20.519Z,7.00
2022-09-13T02:55:12.432Z,7.45
2022-09-13T02:56:00.511Z,7.04
2022-09-13T02:57:14.449Z,6.70
2022-09-13T02:58:38.523Z,6.72
2022-09-13T02:59:37.412Z,6.51
2022-09-13T03:00:31.441Z,6.80
2022-09-13T03:01:25.436Z,7.10
2022-09-13T03:02:24.461Z,7.20
2022-09-13T03:03:21.532Z,7.06
2022-09-13T03:04:02.458Z,6.89
2022-09-13T03:04:42.453Z,6.99
2022-09-13T03:05:23.417Z,6.94
2022-09-13T03:06:03.487Z,6.84
2022-09-13T03:06:44.419Z,6.46
2022-09-13T03:07:24.466Z,6.41
2022-09-13T03:08:05.404Z,6.74
2022-09-13T03:08:45.579Z,6.76
2022-09-13T03:09:26.434Z,6.57
2022-09-13T03:10:16.543Z,6.55
2022-09-13T03:11:28.413Z,6.71
2022-09-13T03:12:49.465Z,6.50
2022-09-13T03:13:43.376Z,6.40
2022-09-13T03:15:08.459Z,7.26
2022-09-13T03:16:58.422Z,7.79
2022-09-13T03:18:28.442Z,6.50
2022-09-13T03:19:47.388Z,6.13
2022-09-13T03:21:14.403Z,6.38
2022-09-13T03:22:13.484Z,6.43
2022-09-13T03:23:12.389Z,6.25
2022-09-13T03:24:30.493Z,6.06
2022-09-13T03:25:45.410Z,6.10
2022-09-13T03:26:59.444Z,6.20
2022-09-13T03:28:20.374Z,6.09
2022-09-13T03:29:36.410Z,6.19
2022-09-13T03:30:31.376Z,6.28
2022-09-13T03:31:47.427Z,6.03
2022-09-13T03:33:10.437Z,5.77
2022-09-13T03:34:33.432Z,5.69
2022-09-13T03:36:11.403Z,6.04
2022-09-13T03:37:07.494Z,5.90
2022-09-13T03:38:21.424Z,5.61
2022-09-13T03:39:44.507Z,5.53
2022-09-13T03:40:39.378Z,5.50
2022-09-13T03:41:25.460Z,5.74
2022-09-13T03:42:12.396Z,5.96
2022-09-13T03:43:02.487Z,6.04
2022-09-13T03:44:05.392Z,6.05
2022-09-13T03:44:45.443Z,6.09
2022-09-13T03:45:29.412Z,6.18
2022-09-13T03:46:19.449Z,6.29
2022-09-13T03:47:04.333Z,6.49
2022-09-13T03:47:47.420Z,6.30
2022-09-13T03:48:29.394Z,6.53
2022-09-13T03:49:29.402Z,6.57
2022-09-13T03:50:24.376Z,6.49
2022-09-13T03:51:20.379Z,6.43
2022-09-13T03:52:07.550Z,6.50
2022-09-13T03:52:48.356Z,6.56
2022-09-13T03:53:32.408Z,6.54
2022-09-13T03:54:18.353Z,6.78
2022-09-13T03:55:00.425Z,7.07
2022-09-13T03:55:36.445Z,7.01
2022-09-13T03:56:26.356Z,6.80
2022-09-13T03:57:24.477Z,6.70
2022-09-13T03:58:11.360Z,6.60
2022-09-13T03:58:45.433Z,6.65
2022-09-13T03:59:32.335Z,6.63
2022-09-13T04:00:13.474Z,6.81
2022-09-13T04:01:07.417Z,6.76
2022-09-13T04:02:01.475Z,6.45
2022-09-13T04:02:55.353Z,6.35
2022-09-13T04:03:55.839Z,6.31
2022-09-13T04:04:52.366Z,6.39
2022-09-13T04:05:32.378Z,6.49
2022-09-13T04:06:13.372Z,6.86
2022-09-13T04:06:53.336Z,6.31
2022-09-13T04:07:33.398Z,6.03
2022-09-13T04:08:15.368Z,6.36
2022-09-13T04:08:55.462Z,6.68
2022-09-13T04:09:37.392Z,6.38
2022-09-13T04:10:17.425Z,6.41
2022-09-13T04:10:58.393Z,6.47
2022-09-13T04:11:39.611Z,6.57
2022-09-13T04:12:21.376Z,6.66
2022-09-13T04:13:01.425Z,6.72
2022-09-13T04:13:43.367Z,6.80
2022-09-13T04:14:26.182Z,6.90
2022-09-13T04:15:07.372Z,6.71
2022-09-13T04:15:47.456Z,6.49
2022-09-13T04:16:27.519Z,6.35
2022-09-13T04:17:07.516Z,6.35
2022-09-13T04:17:47.390Z,6.13
2022-09-13T04:18:27.773Z,5.61
2022-09-13T04:19:07.341Z,5.47
2022-09-13T04:20:27.811Z,5.50
2022-09-13T04:21:08.486Z,5.45
2022-09-13T04:22:32.561Z,5.81
2022-09-13T04:24:32.340Z,5.83
2022-09-13T04:25:22.471Z,5.87
2022-09-13T04:30:03.817Z,6.40
2022-09-13T04:30:51.331Z,6.78
2022-09-13T04:31:25.199Z,6.75
2022-09-13T04:32:13.339Z,6.69
2022-09-13T04:32:47.009Z,6.88
2022-09-13T04:33:34.371Z,6.93
2022-09-13T04:34:14.395Z,6.88
2022-09-13T04:34:54.552Z,7.04
2022-09-13T04:35:35.322Z,7.29
2022-09-13T04:36:16.941Z,7.53
2022-09-13T04:36:59.429Z,7.80
2022-09-13T04:37:39.531Z,8.10
2022-09-13T04:38:19.381Z,8.09
2022-09-13T04:39:00.476Z,8.24
2022-09-13T04:39:40.448Z,8.60
2022-09-13T04:40:22.971Z,8.13
2022-09-13T04:41:05.311Z,7.70
2022-09-13T04:41:48.166Z,7.60
2022-09-13T04:42:29.385Z,7.75
2022-09-13T04:43:10.418Z,7.63
2022-09-13T04:43:50.304Z,7.56
2022-09-13T04:44:30.428Z,7.59
2022-09-13T04:45:13.320Z,7.50
2022-09-13T04:45:53.891Z,7.13
2022-09-13T04:46:35.292Z,7.21
2022-09-13T04:47:16.376Z,7.26
2022-09-13T04:48:00.327Z,7.09
2022-09-13T04:48:40.356Z,7.05
2022-09-13T04:49:22.353Z,6.90
2022-09-13T04:50:02.406Z,6.64
2022-09-13T04:50:42.413Z,6.85
2022-09-13T04:51:23.768Z,7.11
2022-09-13T04:52:04.378Z,6.97
2022-09-13T04:52:45.433Z,6.82
2022-09-13T04:53:26.368Z,6.91
2022-09-13T04:54:06.495Z,7.21
2022-09-13T04:54:46.393Z,7.11
2022-09-13T04:55:26.480Z,6.76
2022-09-13T04:56:11.358Z,6.97
2022-09-13T04:56:55.201Z,7.43
2022-09-13T04:57:36.355Z,7.25
2022-09-13T04:58:20.053Z,7.65
2022-09-13T04:59:06.350Z,7.79
2022-09-13T04:59:46.646Z,7.59
2022-09-13T05:00:26.481Z,7.86
2022-09-13T05:01:19.468Z,8.16
2022-09-13T05:01:53.100Z,8.19
2022-09-13T05:02:40.438Z,8.13
2022-09-13T05:03:13.993Z,7.91
2022-09-13T05:04:02.319Z,8.06
2022-09-13T05:04:36.002Z,8.01
2022-09-13T05:05:23.297Z,8.18
2022-09-13T05:06:07.056Z,8.36
2022-09-13T05:06:48.313Z,7.85
2022-09-13T05:07:22.363Z,7.97
2022-09-13T05:07:56.066Z,7.78
2022-09-13T05:08:37.342Z,7.72
2022-09-13T05:09:11.438Z,7.90
2022-09-13T05:09:45.045Z,7.96
2022-09-13T05:10:26.300Z,7.49
2022-09-13T05:11:00.374Z,7.47
2022-09-13T05:11:35.054Z,7.57
2022-09-13T05:12:15.346Z,7.55
2022-09-13T05:12:49.472Z,7.66
2022-09-13T05:13:23.255Z,7.71
2022-09-13T05:14:06.389Z,7.39
2022-09-13T05:14:40.459Z,7.01
2022-09-13T05:15:14.082Z,7.46
2022-09-13T05:15:55.319Z,7.72
2022-09-13T05:16:31.361Z,7.64
2022-09-13T05:17:05.291Z,7.59
2022-09-13T05:17:45.295Z,7.68
2022-09-13T05:18:19.341Z,7.80
2022-09-13T05:18:53.634Z,7.55
2022-09-13T05:19:33.295Z,7.30
2022-09-13T05:20:07.379Z,7.00
2022-09-13T05:20:41.067Z,7.26
2022-09-13T05:21:22.286Z,7.07
2022-09-13T05:21:56.377Z,7.00
2022-09-13T05:22:29.999Z,7.22
2022-09-13T05:23:10.320Z,7.53
2022-09-13T05:23:44.370Z,7.54
2022-09-13T05:24:18.015Z,7.51
2022-09-13T05:24:58.291Z,7.44
2022-09-13T05:25:32.389Z,7.99
2022-09-13T05:26:06.836Z,8.16
2022-09-13T05:26:47.305Z,7.72
2022-09-13T05:27:21.397Z,7.70
2022-09-13T05:27:54.992Z,7.79
2022-09-13T05:28:38.346Z,7.93
2022-09-13T05:29:14.386Z,8.13
2022-09-13T05:29:48.008Z,8.23
2022-09-13T05:30:28.313Z,8.18
2022-09-13T05:31:07.386Z,7.99
2022-09-13T05:31:42.813Z,7.70
2022-09-13T05:32:23.289Z,7.70
2022-09-13T05:32:58.026Z,8.50
2022-09-13T05:33:35.735Z,8.56
2022-09-13T05:34:20.310Z,8.21
2022-09-13T05:34:54.366Z,8.41
2022-09-13T05:35:28.009Z,8.49
2022-09-13T05:36:10.317Z,8.38
2022-09-13T05:36:45.457Z,8.46
2022-09-13T05:37:19.234Z,8.11
2022-09-13T05:37:59.253Z,7.86
2022-09-13T05:38:33.361Z,8.26
2022-09-13T05:40:11.912Z,8.44
2022-09-13T05:40:46.578Z,8.48
2022-09-13T05:41:21.011Z,8.38
2022-09-13T05:42:01.314Z,8.50
2022-09-13T05:42:35.428Z,8.51
2022-09-13T05:43:09.040Z,8.15
2022-09-13T05:43:49.281Z,8.41
2022-09-13T05:44:23.405Z,8.84
2022-09-13T05:44:57.388Z,8.79
2022-09-13T05:45:37.356Z,8.86
2022-09-13T05:46:24.346Z,8.79
2022-09-13T05:46:57.988Z,8.51
2022-09-13T05:47:38.272Z,8.46
2022-09-13T05:48:12.462Z,8.54
2022-09-13T05:48:47.273Z,8.31
2022-09-13T05:49:27.258Z,8.21
2022-09-13T05:50:10.359Z,8.29
2022-09-13T05:50:58.123Z,8.56
2022-09-13T05:51:39.351Z,8.91
2022-09-13T05:52:20.285Z,9.24
2022-09-13T05:53:01.339Z,9.11
2022-09-13T05:53:42.262Z,9.05
2022-09-13T05:54:22.397Z,9.01
2022-09-13T05:55:02.305Z,9.18
2022-09-13T05:55:43.047Z,9.49
2022-09-13T05:56:29.297Z,9.23
2022-09-13T05:57:09.288Z,9.11
2022-09-13T05:57:49.262Z,8.88
2022-09-13T05:58:29.355Z,9.20
2022-09-13T05:59:09.279Z,9.52
2022-09-13T05:59:50.342Z,9.69
2022-09-13T06:00:31.265Z,9.00
2022-09-13T06:01:12.350Z,9.13
2022-09-13T06:01:52.418Z,9.11
2022-09-13T06:02:32.410Z,9.06
2022-09-13T06:03:14.246Z,9.49
2022-09-13T06:03:56.384Z,9.75
2022-09-13T06:04:36.239Z,9.70
2022-09-13T06:05:17.412Z,10.06
2022-09-13T06:06:01.260Z,9.79
2022-09-13T06:06:42.360Z,9.50
2022-09-13T06:07:22.289Z,9.71
2022-09-13T06:08:02.335Z,9.98
2022-09-13T06:08:43.330Z,10.21
2022-09-13T06:09:23.314Z,9.71
2022-09-13T06:10:04.259Z,9.82
2022-09-13T06:10:44.293Z,10.02
2022-09-13T06:11:24.286Z,9.39
2022-09-13T06:12:04.339Z,9.38
2022-09-13T06:12:45.296Z,9.18
2022-09-13T06:13:25.357Z,9.09
2022-09-13T06:14:06.250Z,8.88
2022-09-13T06:14:46.306Z,8.86
2022-09-13T06:15:26.257Z,8.98
2022-09-13T06:16:08.373Z,9.44
2022-09-13T06:16:48.216Z,9.69
2022-09-13T06:17:28.337Z,8.98
2022-09-13T06:18:08.320Z,8.66
2022-09-13T06:18:48.850Z,8.71
2022-09-13T06:19:29.228Z,8.59
2022-09-13T06:20:10.726Z,8.63
2022-09-13T06:20:51.265Z,8.71
2022-09-13T06:21:32.562Z,8.46
2022-09-13T06:22:13.229Z,8.25
2022-09-13T06:22:55.386Z,7.95
2022-09-13T06:23:36.277Z,7.88
2022-09-13T06:24:16.256Z,8.29
2022-09-13T06:24:56.229Z,8.35
2022-09-13T06:25:36.332Z,7.93
2022-09-13T06:26:19.245Z,7.90
2022-09-13T06:26:59.296Z,8.09
2022-09-13T06:27:39.274Z,7.97
2022-09-13T06:28:21.229Z,7.86
2022-09-13T06:29:03.270Z,8.09
2022-09-13T06:29:44.326Z,8.09
2022-09-13T06:30:26.209Z,9.27
2022-09-13T06:31:09.357Z,13.25
2022-09-13T06:31:51.279Z,10.16
2022-09-13T06:32:32.338Z,7.79
2022-09-13T06:33:12.222Z,8.02
2022-09-13T06:33:53.304Z,7.94
2022-09-13T06:34:34.333Z,7.55
2022-09-13T06:35:16.266Z,7.57
2022-09-13T06:35:56.329Z,7.41
2022-09-13T06:36:37.377Z,7.16
2022-09-13T06:37:17.245Z,7.20
2022-09-13T06:37:58.678Z,7.39
2022-09-13T06:38:39.261Z,7.24
2022-09-13T06:39:19.292Z,6.99
2022-09-13T06:39:59.277Z,7.01
2022-09-13T06:40:39.325Z,7.14
2022-09-13T06:41:25.240Z,7.11
2022-09-13T06:42:05.277Z,6.95
2022-09-13T06:42:45.189Z,6.74
2022-09-13T06:43:25.333Z,6.84
2022-09-13T06:44:07.229Z,7.11
2022-09-13T06:44:48.509Z,6.80
2022-09-13T06:45:29.266Z,6.90
2022-09-13T06:46:25.248Z,7.21
2022-09-13T06:47:06.246Z,6.94
2022-09-13T06:47:46.288Z,6.71
2022-09-13T06:48:27.203Z,6.86
2022-09-13T06:49:12.353Z,6.72
2022-09-13T06:49:52.224Z,6.74
2022-09-13T06:50:39.276Z,6.54
2022-09-13T06:51:19.409Z,6.96
2022-09-13T06:52:07.200Z,6.85
2022-09-13T06:52:41.027Z,6.51
2022-09-13T06:53:28.206Z,6.55
2022-09-13T06:54:03.858Z,6.51
2022-09-13T06:54:51.223Z,6.85
2022-09-13T06:55:25.074Z,6.79
2022-09-13T06:56:15.217Z,6.96
2022-09-13T06:56:49.360Z,7.01
2022-09-13T06:57:23.941Z,6.79
2022-09-13T06:58:05.235Z,6.68
2022-09-13T06:58:40.311Z,6.60
2022-09-13T06:59:13.926Z,6.51
2022-09-13T06:59:54.189Z,6.69
2022-09-13T07:00:28.340Z,6.70
2022-09-13T07:01:24.419Z,6.51
2022-09-13T07:02:04.295Z,6.54
2022-09-13T07:02:45.197Z,6.50
2022-09-13T07:03:25.360Z,6.45
2022-09-13T07:04:08.232Z,6.55
2022-09-13T07:04:48.287Z,6.16
2022-09-13T07:05:28.199Z,6.11
2022-09-13T07:06:37.297Z,6.29
2022-09-13T07:07:10.922Z,6.30
2022-09-13T07:07:59.180Z,6.24
2022-09-13T07:08:34.423Z,6.11
2022-09-13T07:09:25.217Z,5.76
2022-09-13T07:10:00.953Z,6.11
2022-09-13T07:10:48.251Z,6.13
2022-09-13T07:11:25.258Z,6.11
2022-09-13T07:12:05.301Z,6.28
2022-09-13T07:12:39.270Z,6.20
2022-09-13T07:13:12.912Z,5.81
2022-09-13T07:14:01.211Z,6.04
2022-09-13T07:14:36.297Z,6.35
2022-09-13T07:15:10.269Z,6.10
2022-09-13T07:15:50.217Z,6.21
2022-09-13T07:16:26.972Z,6.03
2022-09-13T07:17:00.964Z,6.03
2022-09-13T07:17:41.249Z,5.95
2022-09-13T07:18:15.245Z,5.82
2022-09-13T07:19:00.726Z,5.90
2022-09-13T07:19:42.193Z,5.78
2022-09-13T07:20:17.339Z,5.61
2022-09-13T07:20:50.975Z,5.60
2022-09-13T07:21:33.146Z,5.56
2022-09-13T07:22:07.532Z,5.54
2022-09-13T07:22:48.226Z,5.68
2022-09-13T07:23:28.634Z,5.74
2022-09-13T07:24:03.369Z,5.25
2022-09-13T07:24:43.190Z,5.31
2022-09-13T07:25:17.277Z,5.15
2022-09-13T07:26:01.959Z,5.24
2022-09-13T07:26:43.156Z,5.21
2022-09-13T07:27:17.301Z,5.43
2022-09-13T07:27:57.221Z,5.47
2022-09-13T07:28:47.300Z,5.60
2022-09-13T07:29:30.194Z,5.49
2022-09-13T07:30:11.215Z,5.53
2022-09-13T07:30:51.295Z,5.34
2022-09-13T07:31:40.272Z,5.43
2022-09-13T07:32:20.288Z,5.35
2022-09-13T07:33:07.234Z,5.30
2022-09-13T07:33:43.360Z,5.49
2022-09-13T07:34:36.166Z,5.16
2022-09-13T07:35:09.904Z,5.30
2022-09-13T07:35:57.236Z,5.22
2022-09-13T07:36:33.426Z,5.28
2022-09-13T07:37:20.176Z,5.13
2022-09-13T07:37:53.911Z,4.89
2022-09-13T07:38:34.196Z,5.20
2022-09-13T07:39:14.357Z,5.22
2022-09-13T07:39:49.886Z,5.14
2022-09-13T07:40:30.170Z,4.96
2022-09-13T07:41:06.638Z,5.20
2022-09-13T07:41:40.961Z,5.22
2022-09-13T07:42:21.149Z,4.99
2022-09-13T07:42:55.322Z,4.84
2022-09-13T07:43:29.545Z,4.82
2022-09-13T07:44:11.174Z,4.84
2022-09-13T07:44:45.252Z,4.44
2022-09-13T07:45:18.920Z,4.43
2022-09-13T07:46:08.186Z,4.47
2022-09-13T07:46:44.324Z,4.46
2022-09-13T07:47:18.002Z,4.57
2022-09-13T07:48:00.147Z,4.56
2022-09-13T07:48:36.269Z,4.49
2022-09-13T07:49:19.364Z,4.54
2022-09-13T07:50:00.231Z,4.53
2022-09-13T07:50:40.183Z,4.47
2022-09-13T07:51:29.278Z,4.45
2022-09-13T07:52:09.155Z,4.34
2022-09-13T07:52:49.216Z,4.24
2022-09-13T07:53:29.168Z,4.40
2022-09-13T07:54:13.318Z,4.36
2022-09-13T07:54:55.165Z,4.22
2022-09-13T07:55:36.387Z,4.36
2022-09-13T07:56:25.173Z,4.30
2022-09-13T07:57:05.265Z,4.19
2022-09-13T07:57:45.185Z,4.22
2022-09-13T07:58:25.322Z,4.18
2022-09-13T07:59:08.152Z,4.11
2022-09-13T07:59:49.192Z,4.04
2022-09-13T08:00:31.169Z,4.19
2022-09-13T08:01:24.275Z,3.99
2022-09-13T08:02:04.345Z,4.06
2022-09-13T08:02:44.322Z,3.86
2022-09-13T08:03:24.166Z,4.07
2022-09-13T08:04:07.272Z,4.19
2022-09-13T08:04:47.190Z,4.26
2022-09-13T08:05:27.260Z,3.96
2022-09-13T08:06:08.161Z,4.20
2022-09-13T08:06:49.935Z,4.22
2022-09-13T08:07:30.219Z,4.09
2022-09-13T08:08:10.238Z,4.13
2022-09-13T08:08:50.226Z,4.18
2022-09-13T08:09:30.199Z,4.39
2022-09-13T08:10:11.177Z,4.30
2022-09-13T08:10:51.292Z,4.13
2022-09-13T08:11:37.216Z,4.10
2022-09-13T08:12:18.274Z,4.25
2022-09-13T08:12:58.114Z,4.15
2022-09-13T08:13:38.322Z,4.21
2022-09-13T08:14:21.105Z,4.09
2022-09-13T08:15:01.498Z,4.13
2022-09-13T08:15:42.322Z,4.01
2022-09-13T08:16:25.201Z,4.13
2022-09-13T08:17:05.205Z,3.94
2022-09-13T08:17:46.207Z,3.96
2022-09-13T08:18:26.201Z,4.09
2022-09-13T08:19:12.368Z,4.22
2022-09-13T08:19:53.200Z,4.21
2022-09-13T08:20:33.198Z,4.35
2022-09-13T08:21:13.106Z,4.13
2022-09-13T08:21:54.213Z,4.24
2022-09-13T08:22:34.174Z,4.20
2022-09-13T08:23:17.210Z,4.30
2022-09-13T08:24:01.169Z,4.31
2022-09-13T08:24:41.189Z,4.36
2022-09-13T08:25:28.206Z,4.39
2022-09-13T08:26:08.146Z,4.10
2022-09-13T08:26:56.138Z,4.49
2022-09-13T08:27:30.208Z,4.36
2022-09-13T08:28:17.164Z,4.30
2022-09-13T08:29:02.208Z,4.36
2022-09-13T08:29:42.136Z,4.40
2022-09-13T08:30:22.763Z,4.64
2022-09-13T08:31:04.190Z,4.36
2022-09-13T08:31:44.214Z,4.43
2022-09-13T08:32:24.307Z,4.53
2022-09-13T08:33:04.215Z,4.65
2022-09-13T08:33:46.750Z,4.65
2022-09-13T08:34:27.306Z,4.51
2022-09-13T08:35:07.146Z,4.39
2022-09-13T08:35:47.214Z,4.40
2022-09-13T08:36:30.130Z,4.39
2022-09-13T08:37:10.588Z,4.32
2022-09-13T08:37:51.142Z,4.40
2022-09-13T08:38:31.466Z,4.22
2022-09-13T08:39:11.192Z,4.10
2022-09-13T08:39:51.235Z,4.36
2022-09-13T08:40:35.165Z,4.24
2022-09-13T08:41:48.939Z,4.54
2022-09-13T08:42:49.108Z,4.68
2022-09-13T08:43:44.152Z,4.71
2022-09-13T08:44:30.131Z,4.65
2022-09-13T08:45:10.275Z,4.53
2022-09-13T08:45:58.213Z,4.47
2022-09-13T08:46:48.259Z,4.16
2022-09-13T08:47:52.130Z,4.19
2022-09-13T08:48:44.254Z,4.40
2022-09-13T08:49:41.224Z,4.45
2022-09-13T08:50:42.311Z,4.51
2022-09-13T08:51:48.137Z,4.66
2022-09-13T08:52:47.168Z,4.50
2022-09-13T08:53:37.085Z,4.35
2022-09-13T08:54:22.420Z,4.30
2022-09-13T08:55:03.157Z,4.49
2022-09-13T08:56:14.432Z,4.68
2022-09-13T08:57:19.169Z,4.40
2022-09-13T08:58:25.776Z,4.32
2022-09-13T08:59:29.089Z,4.63
2022-09-13T09:00:21.004Z,4.68
2022-09-13T09:01:43.179Z,4.22
2022-09-13T09:03:18.156Z,4.50
2022-09-13T09:04:41.168Z,4.49
2022-09-13T09:05:39.138Z,4.20
2022-09-13T09:06:34.109Z,4.24
2022-09-13T09:07:35.116Z,4.34
2022-09-13T09:08:42.109Z,4.63
2022-09-13T09:09:36.126Z,4.36
2022-09-13T09:10:36.299Z,4.11
2022-09-13T09:11:37.169Z,4.00
2022-09-13T09:12:44.571Z,3.95
2022-09-13T09:13:35.151Z,3.99
2022-09-13T09:14:44.395Z,3.78
2022-09-13T09:15:36.168Z,3.85
2022-09-13T09:16:59.444Z,3.86
2022-09-13T09:18:38.125Z,3.81
2022-09-13T09:19:51.198Z,3.80
2022-09-13T09:21:06.120Z,3.86
2022-09-13T09:22:03.124Z,3.76
2022-09-13T09:22:58.089Z,3.92
2022-09-13T09:24:06.109Z,3.86
2022-09-13T09:25:08.086Z,3.66
2022-09-13T09:26:05.134Z,3.61
2022-09-13T09:26:59.105Z,3.75
2022-09-13T09:27:40.194Z,3.84
2022-09-13T09:28:24.173Z,4.01
2022-09-13T09:29:25.231Z,4.07
2022-09-13T09:30:05.136Z,3.86
2022-09-13T09:31:13.169Z,3.92
2022-09-13T09:32:54.125Z,4.24
2022-09-13T09:34:09.118Z,4.09
2022-09-13T09:35:55.183Z,4.28
2022-09-13T09:36:55.073Z,4.59
2022-09-13T09:37:51.150Z,4.40
2022-09-13T09:38:48.294Z,4.24
2022-09-13T09:39:32.614Z,4.19
2022-09-13T09:40:17.209Z,3.79
2022-09-13T09:40:57.673Z,3.70
2022-09-13T09:41:41.095Z,3.29
2022-09-13T09:42:31.128Z,3.21
2022-09-13T09:43:40.094Z,3.35
2022-09-13T09:44:34.096Z,3.28
2022-09-13T09:45:13.212Z,3.29
2022-09-13T09:46:01.103Z,3.40
2022-09-13T09:46:39.304Z,3.39
2022-09-13T09:47:31.109Z,3.65
2022-09-13T09:48:12.128Z,3.42
2022-09-13T09:49:04.196Z,3.45
2022-09-13T09:50:17.243Z,3.49
2022-09-13T09:51:12.182Z,3.56
2022-09-13T09:52:07.114Z,3.36
2022-09-13T09:53:13.113Z,3.46
2022-09-13T09:54:16.118Z,3.63
2022-09-13T09:55:18.129Z,3.34
2022-09-13T09:56:13.134Z,3.49
2022-09-13T09:57:09.146Z,3.50
2022-09-13T09:58:16.014Z,3.26
2022-09-13T09:59:10.153Z,3.16
2022-09-13T10:00:04.101Z,3.25
2022-09-13T10:00:58.135Z,3.41
2022-09-13T10:01:52.174Z,3.33
2022-09-13T10:02:47.081Z,3.34
2022-09-13T10:03:47.057Z,3.30
2022-09-13T10:04:43.028Z,3.34
2022-09-13T10:05:39.120Z,3.53
2022-09-13T10:06:28.087Z,3.51
2022-09-13T10:07:32.537Z,3.36
2022-09-13T10:08:15.037Z,2.81
2022-09-13T10:09:08.177Z,2.94
2022-09-13T10:10:30.034Z,2.85
2022-09-13T10:11:11.118Z,2.78
2022-09-13T10:12:04.144Z,3.08
2022-09-13T10:12:47.146Z,3.04
2022-09-13T10:13:31.741Z,3.03
2022-09-13T10:14:12.143Z,2.94
2022-09-13T10:14:54.108Z,3.04
2022-09-13T10:15:38.178Z,2.84
2022-09-13T10:16:37.146Z,2.91
2022-09-13T10:17:31.158Z,3.13
2022-09-13T10:18:43.900Z,3.19
2022-09-13T10:19:40.061Z,3.22
2022-09-13T10:20:36.075Z,3.16
2022-09-13T10:21:33.068Z,2.99
2022-09-13T10:22:27.026Z,3.06
2022-09-13T10:23:41.140Z,3.30
2022-09-13T10:24:28.697Z,2.99
2022-09-13T10:25:47.806Z,2.94
2022-09-13T10:26:30.319Z,2.96
2022-09-13T10:27:11.050Z,2.69
2022-09-13T10:27:59.152Z,2.85
2022-09-13T10:29:15.159Z,3.05
2022-09-13T10:30:00.207Z,2.76
2022-09-13T10:30:55.022Z,2.83
2022-09-13T10:31:41.184Z,2.91
2022-09-13T10:32:23.082Z,2.71
2022-09-13T10:33:03.152Z,2.60
2022-09-13T10:33:49.063Z,2.60